Terminal Aerodrome Forecast
Issued by NWS

Home | Current Version | Previous Version | Text Only | Print | Product List | Glossary On
Versions: 1 2 3 4 5 6 7 8 9 10 11 12 13 14 15 16 17 18 19 20 21 22 23 24 25 26 27
000
FTUS42 KJAX 192320
TAFVQQ
TAF
KVQQ 192320Z 2000/2024 22004KT P6SM FEW040 SCT060 BKN150
     FM200200 18002KT P6SM FEW015 SCT025 BKN040
     FM200400 21006KT P6SM OVC015
     FM200600 21005KT P6SM OVC010
     FM200800 24006KT 4SM BR OVC005
     FM201400 22006KT P6SM FEW015 SCT025 BKN035
     FM201800 25011G18KT P6SM VCTS SCT030 BKN040CB OVC050
      TEMPO 2020/2024 VRB25G35KT 5SM -TSRA SCT015 BKN030CB=

USA.gov is the U.S. government's official web portal to all federal, state and local government web resources and services.